sensor_id;sensor_type;location;lat;lon;timestamp;temperature;humidity
28087;DHT22;15392;48.912;8.380;2023-05-19T00:01:40;17.30;41.50
28087;DHT22;15392;48.912;8.380;2023-05-19T00:04:09;17.30;41.50
28087;DHT22;15392;48.912;8.380;2023-05-19T00:06:37;17.30;41.60
28087;DHT22;15392;48.912;8.380;2023-05-19T00:09:04;17.20;41.50
28087;DHT22;15392;48.912;8.380;2023-05-19T00:11:35;17.30;41.60
28087;DHT22;15392;48.912;8.380;2023-05-19T00:14:04;17.30;41.70
28087;DHT22;15392;48.912;8.380;2023-05-19T00:16:32;17.20;41.70
28087;DHT22;15392;48.912;8.380;2023-05-19T00:18:59;17.20;41.70
28087;DHT22;15392;48.912;8.380;2023-05-19T00:21:26;17.20;41.80
28087;DHT22;15392;48.912;8.380;2023-05-19T00:23:53;17.20;41.80
28087;DHT22;15392;48.912;8.380;2023-05-19T00:26:18;17.10;41.80
28087;DHT22;15392;48.912;8.380;2023-05-19T00:28:47;17.20;41.80
28087;DHT22;15392;48.912;8.380;2023-05-19T00:31:13;17.10;41.80
28087;DHT22;15392;48.912;8.380;2023-05-19T00:33:39;17.10;42.00
28087;DHT22;15392;48.912;8.380;2023-05-19T00:36:05;17.10;42.00
28087;DHT22;15392;48.912;8.380;2023-05-19T00:38:33;17.10;42.10
28087;DHT22;15392;48.912;8.380;2023-05-19T00:41:00;17.20;42.30
28087;DHT22;15392;48.912;8.380;2023-05-19T00:43:27;17.10;42.40
28087;DHT22;15392;48.912;8.380;2023-05-19T00:45:54;17.10;42.40
28087;DHT22;15392;48.912;8.380;2023-05-19T00:48:24;17.20;42.60
28087;DHT22;15392;48.912;8.380;2023-05-19T00:50:52;17.20;42.70
28087;DHT22;15392;48.912;8.380;2023-05-19T00:53:19;17.20;42.70
28087;DHT22;15392;48.912;8.380;2023-05-19T00:55:46;17.20;42.70
28087;DHT22;15392;48.912;8.380;2023-05-19T00:58:12;17.20;42.80
28087;DHT22;15392;48.912;8.380;2023-05-19T01:00:39;17.20;42.80
28087;DHT22;15392;48.912;8.380;2023-05-19T01:03:05;17.20;42.70
28087;DHT22;15392;48.912;8.380;2023-05-19T01:05:41;17.20;42.70
28087;DHT22;15392;48.912;8.380;2023-05-19T01:08:12;17.20;42.80
28087;DHT22;15392;48.912;8.380;2023-05-19T01:10:37;17.20;42.70
28087;DHT22;15392;48.912;8.380;2023-05-19T01:13:04;17.20;43.30
28087;DHT22;15392;48.912;8.380;2023-05-19T01:15:51;17.10;42.60
28087;DHT22;15392;48.912;8.380;2023-05-19T01:18:55;17.10;42.70
28087;DHT22;15392;48.912;8.380;2023-05-19T01:25:06;17.00;42.60
28087;DHT22;15392;48.912;8.380;2023-05-19T01:28:14;17.00;42.70
28087;DHT22;15392;48.912;8.380;2023-05-19T01:30:43;16.90;42.70
28087;DHT22;15392;48.912;8.380;2023-05-19T01:33:11;16.80;42.90
28087;DHT22;15392;48.912;8.380;2023-05-19T01:35:39;16.80;43.00
28087;DHT22;15392;48.912;8.380;2023-05-19T01:38:11;16.70;43.10
28087;DHT22;15392;48.912;8.380;2023-05-19T01:40:38;16.70;43.30
28087;DHT22;15392;48.912;8.380;2023-05-19T01:43:07;16.60;43.30
28087;DHT22;15392;48.912;8.380;2023-05-19T01:45:34;16.60;43.30
28087;DHT22;15392;48.912;8.380;2023-05-19T01:48:03;16.60;43.40
28087;DHT22;15392;48.912;8.380;2023-05-19T01:50:31;16.60;43.50
28087;DHT22;15392;48.912;8.380;2023-05-19T01:52:57;16.60;43.50
28087;DHT22;15392;48.912;8.380;2023-05-19T01:55:23;16.60;43.50
28087;DHT22;15392;48.912;8.380;2023-05-19T02:09:16;16.60;44.20
28087;DHT22;15392;48.912;8.380;2023-05-19T02:14:37;16.50;43.40
28087;DHT22;15392;48.912;8.380;2023-05-19T02:17:07;16.40;43.50
28087;DHT22;15392;48.912;8.380;2023-05-19T02:19:37;16.40;43.40
28087;DHT22;15392;48.912;8.380;2023-05-19T02:22:04;16.40;43.50
28087;DHT22;15392;48.912;8.380;2023-05-19T02:24:30;16.30;43.50
28087;DHT22;15392;48.912;8.380;2023-05-19T02:26:56;16.20;43.50
28087;DHT22;15392;48.912;8.380;2023-05-19T02:29:22;16.30;43.70
28087;DHT22;15392;48.912;8.380;2023-05-19T02:31:47;16.20;43.60
28087;DHT22;15392;48.912;8.380;2023-05-19T02:34:13;16.20;43.60
28087;DHT22;15392;48.912;8.380;2023-05-19T02:36:40;16.20;43.70
28087;DHT22;15392;48.912;8.380;2023-05-19T02:39:08;16.10;43.70
28087;DHT22;15392;48.912;8.380;2023-05-19T02:41:35;16.10;43.80
28087;DHT22;15392;48.912;8.380;2023-05-19T02:44:01;16.00;43.80
28087;DHT22;15392;48.912;8.380;2023-05-19T02:46:27;15.90;43.80
28087;DHT22;15392;48.912;8.380;2023-05-19T02:48:54;15.90;43.90
28087;DHT22;15392;48.912;8.380;2023-05-19T02:51:19;15.90;43.90
28087;DHT22;15392;48.912;8.380;2023-05-19T02:53:45;15.80;44.00
28087;DHT22;15392;48.912;8.380;2023-05-19T02:56:11;15.80;44.10
28087;DHT22;15392;48.912;8.380;2023-05-19T02:58:37;15.80;44.20
28087;DHT22;15392;48.912;8.380;2023-05-19T03:01:03;15.70;44.20
28087;DHT22;15392;48.912;8.380;2023-05-19T03:03:29;15.70;44.30
28087;DHT22;15392;48.912;8.380;2023-05-19T03:05:55;15.70;44.30
28087;DHT22;15392;48.912;8.380;2023-05-19T03:08:21;15.70;44.40
28087;DHT22;15392;48.912;8.380;2023-05-19T03:10:47;15.60;44.40
28087;DHT22;15392;48.912;8.380;2023-05-19T03:13:12;15.60;44.50
28087;DHT22;15392;48.912;8.380;2023-05-19T03:15:38;15.60;44.50
28087;DHT22;15392;48.912;8.380;2023-05-19T03:18:04;15.60;44.50
28087;DHT22;15392;48.912;8.380;2023-05-19T03:20:31;15.60;44.50
28087;DHT22;15392;48.912;8.380;2023-05-19T03:22:57;15.50;44.50
28087;DHT22;15392;48.912;8.380;2023-05-19T03:25:23;15.50;44.60
28087;DHT22;15392;48.912;8.380;2023-05-19T03:27:49;15.50;44.60
28087;DHT22;15392;48.912;8.380;2023-05-19T03:30:15;15.50;44.70
28087;DHT22;15392;48.912;8.380;2023-05-19T03:32:41;15.50;44.60
28087;DHT22;15392;48.912;8.380;2023-05-19T03:35:07;15.50;44.70
28087;DHT22;15392;48.912;8.380;2023-05-19T03:37:32;15.50;44.70
28087;DHT22;15392;48.912;8.380;2023-05-19T03:39:58;15.50;44.70
28087;DHT22;15392;48.912;8.380;2023-05-19T03:42:24;15.50;44.80
28087;DHT22;15392;48.912;8.380;2023-05-19T03:44:50;15.40;44.70
28087;DHT22;15392;48.912;8.380;2023-05-19T03:47:16;15.40;44.70
28087;DHT22;15392;48.912;8.380;2023-05-19T03:49:42;15.40;44.70
28087;DHT22;15392;48.912;8.380;2023-05-19T03:52:08;15.40;44.80
28087;DHT22;15392;48.912;8.380;2023-05-19T03:54:34;15.40;44.90
28087;DHT22;15392;48.912;8.380;2023-05-19T03:57:00;15.40;44.90
28087;DHT22;15392;48.912;8.380;2023-05-19T03:59:27;15.40;44.90
28087;DHT22;15392;48.912;8.380;2023-05-19T04:01:52;15.40;44.90
28087;DHT22;15392;48.912;8.380;2023-05-19T04:04:18;15.40;44.90
28087;DHT22;15392;48.912;8.380;2023-05-19T04:06:45;15.40;44.90
28087;DHT22;15392;48.912;8.380;2023-05-19T04:09:13;15.40;44.90
28087;DHT22;15392;48.912;8.380;2023-05-19T04:11:40;15.40;44.90
28087;DHT22;15392;48.912;8.380;2023-05-19T04:14:07;15.40;44.90
28087;DHT22;15392;48.912;8.380;2023-05-19T04:16:33;15.40;45.00
28087;DHT22;15392;48.912;8.380;2023-05-19T04:19:00;15.50;45.00
28087;DHT22;15392;48.912;8.380;2023-05-19T04:21:25;15.50;45.00
28087;DHT22;15392;48.912;8.380;2023-05-19T04:23:52;15.50;45.00
28087;DHT22;15392;48.912;8.380;2023-05-19T04:26:18;15.50;45.00
28087;DHT22;15392;48.912;8.380;2023-05-19T04:28:46;15.50;45.00
28087;DHT22;15392;48.912;8.380;2023-05-19T04:31:15;15.50;45.00
28087;DHT22;15392;48.912;8.380;2023-05-19T04:33:41;15.50;45.00
28087;DHT22;15392;48.912;8.380;2023-05-19T04:36:07;15.50;44.90
28087;DHT22;15392;48.912;8.380;2023-05-19T04:38:35;15.50;44.90
28087;DHT22;15392;48.912;8.380;2023-05-19T04:41:02;15.50;44.90
28087;DHT22;15392;48.912;8.380;2023-05-19T04:43:28;15.50;44.90
28087;DHT22;15392;48.912;8.380;2023-05-19T04:45:54;15.50;44.90
28087;DHT22;15392;48.912;8.380;2023-05-19T04:48:22;15.60;45.00
28087;DHT22;15392;48.912;8.380;2023-05-19T04:50:49;15.60;44.90
28087;DHT22;15392;48.912;8.380;2023-05-19T04:53:16;15.60;44.80
28087;DHT22;15392;48.912;8.380;2023-05-19T04:55:43;15.60;44.80
28087;DHT22;15392;48.912;8.380;2023-05-19T04:58:09;15.60;44.90
28087;DHT22;15392;48.912;8.380;2023-05-19T05:00:36;15.70;44.90
28087;DHT22;15392;48.912;8.380;2023-05-19T05:03:02;15.70;44.90
28087;DHT22;15392;48.912;8.380;2023-05-19T05:05:32;15.70;44.90
28087;DHT22;15392;48.912;8.380;2023-05-19T05:07:57;15.70;44.90
28087;DHT22;15392;48.912;8.380;2023-05-19T05:10:23;15.80;44.90
28087;DHT22;15392;48.912;8.380;2023-05-19T05:12:50;15.70;44.80
28087;DHT22;15392;48.912;8.380;2023-05-19T05:15:16;15.80;44.80
28087;DHT22;15392;48.912;8.380;2023-05-19T05:17:42;15.80;44.90
28087;DHT22;15392;48.912;8.380;2023-05-19T05:20:09;15.90;44.90
28087;DHT22;15392;48.912;8.380;2023-05-19T05:22:37;15.90;44.90
28087;DHT22;15392;48.912;8.380;2023-05-19T05:25:03;15.90;44.90
28087;DHT22;15392;48.912;8.380;2023-05-19T05:27:30;15.90;44.80
28087;DHT22;15392;48.912;8.380;2023-05-19T05:29:56;16.00;44.90
28087;DHT22;15392;48.912;8.380;2023-05-19T05:32:22;16.00;44.90
28087;DHT22;15392;48.912;8.380;2023-05-19T05:34:48;16.00;44.80
28087;DHT22;15392;48.912;8.380;2023-05-19T05:37:15;16.00;44.80
28087;DHT22;15392;48.912;8.380;2023-05-19T05:39:41;16.00;44.80
28087;DHT22;15392;48.912;8.380;2023-05-19T05:42:06;16.00;44.90
28087;DHT22;15392;48.912;8.380;2023-05-19T05:44:35;16.00;44.80
28087;DHT22;15392;48.912;8.380;2023-05-19T05:47:02;16.10;44.90
28087;DHT22;15392;48.912;8.380;2023-05-19T05:49:28;16.10;44.90
28087;DHT22;15392;48.912;8.380;2023-05-19T05:51:55;16.10;44.90
28087;DHT22;15392;48.912;8.380;2023-05-19T05:54:21;16.10;44.90
28087;DHT22;15392;48.912;8.380;2023-05-19T05:56:49;16.10;45.00
28087;DHT22;15392;48.912;8.380;2023-05-19T05:59:15;16.20;45.00
28087;DHT22;15392;48.912;8.380;2023-05-19T06:01:41;16.20;45.00
28087;DHT22;15392;48.912;8.380;2023-05-19T06:04:08;16.20;45.00
28087;DHT22;15392;48.912;8.380;2023-05-19T06:06:34;16.20;45.00
28087;DHT22;15392;48.912;8.380;2023-05-19T06:09:03;16.20;45.00
28087;DHT22;15392;48.912;8.380;2023-05-19T06:11:29;16.30;45.00
28087;DHT22;15392;48.912;8.380;2023-05-19T06:13:55;16.30;45.10
28087;DHT22;15392;48.912;8.380;2023-05-19T06:16:21;16.30;45.10
28087;DHT22;15392;48.912;8.380;2023-05-19T06:18:47;16.30;45.00
28087;DHT22;15392;48.912;8.380;2023-05-19T06:21:13;16.40;45.10
28087;DHT22;15392;48.912;8.380;2023-05-19T06:23:39;16.40;45.00
28087;DHT22;15392;48.912;8.380;2023-05-19T06:26:05;16.40;44.90
28087;DHT22;15392;48.912;8.380;2023-05-19T06:28:32;16.50;44.90
28087;DHT22;15392;48.912;8.380;2023-05-19T06:30:58;16.50;44.90
28087;DHT22;15392;48.912;8.380;2023-05-19T06:33:25;16.60;45.60
28087;DHT22;15392;48.912;8.380;2023-05-19T06:35:51;16.60;44.90
28087;DHT22;15392;48.912;8.380;2023-05-19T06:38:17;16.60;44.90
28087;DHT22;15392;48.912;8.380;2023-05-19T06:40:42;16.70;45.00
28087;DHT22;15392;48.912;8.380;2023-05-19T06:43:08;16.70;45.00
28087;DHT22;15392;48.912;8.380;2023-05-19T06:45:34;16.80;44.90
28087;DHT22;15392;48.912;8.380;2023-05-19T06:48:00;16.80;44.90
28087;DHT22;15392;48.912;8.380;2023-05-19T06:50:26;16.90;44.90
28087;DHT22;15392;48.912;8.380;2023-05-19T06:52:52;16.90;44.90
28087;DHT22;15392;48.912;8.380;2023-05-19T06:55:18;17.00;44.90
28087;DHT22;15392;48.912;8.380;2023-05-19T06:57:44;17.00;44.80
28087;DHT22;15392;48.912;8.380;2023-05-19T07:00:10;17.10;44.80
28087;DHT22;15392;48.912;8.380;2023-05-19T07:02:37;17.20;44.80
28087;DHT22;15392;48.912;8.380;2023-05-19T07:05:03;17.20;44.70
28087;DHT22;15392;48.912;8.380;2023-05-19T07:07:30;17.30;44.70
28087;DHT22;15392;48.912;8.380;2023-05-19T07:09:56;17.30;44.70
28087;DHT22;15392;48.912;8.380;2023-05-19T07:12:22;17.40;44.70
28087;DHT22;15392;48.912;8.380;2023-05-19T07:14:47;17.50;44.60
28087;DHT22;15392;48.912;8.380;2023-05-19T07:17:13;17.50;44.60
28087;DHT22;15392;48.912;8.380;2023-05-19T07:19:39;17.50;44.50
28087;DHT22;15392;48.912;8.380;2023-05-19T07:22:05;17.60;44.50
28087;DHT22;15392;48.912;8.380;2023-05-19T07:24:31;17.60;44.50
28087;DHT22;15392;48.912;8.380;2023-05-19T07:26:56;17.70;44.50
28087;DHT22;15392;48.912;8.380;2023-05-19T07:29:23;17.80;44.60
28087;DHT22;15392;48.912;8.380;2023-05-19T07:31:48;17.80;44.50
28087;DHT22;15392;48.912;8.380;2023-05-19T07:34:19;17.90;44.40
28087;DHT22;15392;48.912;8.380;2023-05-19T07:36:46;18.00;44.50
28087;DHT22;15392;48.912;8.380;2023-05-19T07:39:12;18.00;44.40
28087;DHT22;15392;48.912;8.380;2023-05-19T07:41:38;18.10;44.40
28087;DHT22;15392;48.912;8.380;2023-05-19T07:44:04;18.10;44.40
28087;DHT22;15392;48.912;8.380;2023-05-19T07:46:35;18.30;44.40
28087;DHT22;15392;48.912;8.380;2023-05-19T07:49:02;18.30;44.40
28087;DHT22;15392;48.912;8.380;2023-05-19T07:51:28;18.40;44.30
28087;DHT22;15392;48.912;8.380;2023-05-19T07:53:54;18.40;44.20
28087;DHT22;15392;48.912;8.380;2023-05-19T07:56:20;18.50;44.20
28087;DHT22;15392;48.912;8.380;2023-05-19T07:58:46;18.60;44.20
28087;DHT22;15392;48.912;8.380;2023-05-19T08:01:11;18.60;44.10
28087;DHT22;15392;48.912;8.380;2023-05-19T08:03:37;18.70;44.10
28087;DHT22;15392;48.912;8.380;2023-05-19T08:06:03;18.80;44.00
28087;DHT22;15392;48.912;8.380;2023-05-19T08:08:29;18.90;44.00
28087;DHT22;15392;48.912;8.380;2023-05-19T08:11:01;18.90;44.00
28087;DHT22;15392;48.912;8.380;2023-05-19T08:13:28;19.00;44.00
28087;DHT22;15392;48.912;8.380;2023-05-19T08:15:54;19.10;44.00
28087;DHT22;15392;48.912;8.380;2023-05-19T08:18:24;19.20;44.00
28087;DHT22;15392;48.912;8.380;2023-05-19T08:20:51;19.20;43.90
28087;DHT22;15392;48.912;8.380;2023-05-19T08:23:16;19.30;43.90
28087;DHT22;15392;48.912;8.380;2023-05-19T08:25:42;19.40;44.00
28087;DHT22;15392;48.912;8.380;2023-05-19T08:28:09;19.40;44.00
28087;DHT22;15392;48.912;8.380;2023-05-19T08:30:35;19.50;44.00
28087;DHT22;15392;48.912;8.380;2023-05-19T08:33:01;19.70;44.10
28087;DHT22;15392;48.912;8.380;2023-05-19T08:35:27;19.80;44.00
28087;DHT22;15392;48.912;8.380;2023-05-19T08:37:53;19.90;43.90
28087;DHT22;15392;48.912;8.380;2023-05-19T08:40:20;20.00;43.80
28087;DHT22;15392;48.912;8.380;2023-05-19T08:42:46;20.00;43.70
28087;DHT22;15392;48.912;8.380;2023-05-19T08:45:12;20.10;43.60
28087;DHT22;15392;48.912;8.380;2023-05-19T08:47:40;20.20;43.60
28087;DHT22;15392;48.912;8.380;2023-05-19T08:50:07;20.20;43.50
28087;DHT22;15392;48.912;8.380;2023-05-19T08:56:10;20.40;43.40
28087;DHT22;15392;48.912;8.380;2023-05-19T08:58:40;20.50;43.20
28087;DHT22;15392;48.912;8.380;2023-05-19T09:01:09;20.60;43.30
28087;DHT22;15392;48.912;8.380;2023-05-19T09:03:39;20.70;43.40
28087;DHT22;15392;48.912;8.380;2023-05-19T09:06:06;20.70;43.20
28087;DHT22;15392;48.912;8.380;2023-05-19T09:08:37;20.80;43.00
28087;DHT22;15392;48.912;8.380;2023-05-19T09:11:03;20.90;42.90
28087;DHT22;15392;48.912;8.380;2023-05-19T09:13:29;20.90;42.90
28087;DHT22;15392;48.912;8.380;2023-05-19T09:15:56;21.00;43.00
28087;DHT22;15392;48.912;8.380;2023-05-19T09:18:23;21.00;42.80
28087;DHT22;15392;48.912;8.380;2023-05-19T09:21:00;21.10;42.90
28087;DHT22;15392;48.912;8.380;2023-05-19T09:23:30;21.10;42.60
28087;DHT22;15392;48.912;8.380;2023-05-19T09:26:01;21.10;42.60
28087;DHT22;15392;48.912;8.380;2023-05-19T09:28:31;21.20;42.60
28087;DHT22;15392;48.912;8.380;2023-05-19T09:31:16;21.30;42.70
28087;DHT22;15392;48.912;8.380;2023-05-19T09:33:42;21.30;42.50
28087;DHT22;15392;48.912;8.380;2023-05-19T09:36:08;21.30;42.50
28087;DHT22;15392;48.912;8.380;2023-05-19T09:38:36;21.30;42.40
28087;DHT22;15392;48.912;8.380;2023-05-19T09:41:04;21.30;42.30
28087;DHT22;15392;48.912;8.380;2023-05-19T09:43:32;21.40;42.30
28087;DHT22;15392;48.912;8.380;2023-05-19T09:45:59;21.40;42.40
28087;DHT22;15392;48.912;8.380;2023-05-19T09:48:28;21.40;42.30
28087;DHT22;15392;48.912;8.380;2023-05-19T09:50:55;21.50;42.20
28087;DHT22;15392;48.912;8.380;2023-05-19T09:53:24;21.40;42.10
28087;DHT22;15392;48.912;8.380;2023-05-19T09:55:50;21.50;42.10
28087;DHT22;15392;48.912;8.380;2023-05-19T09:58:22;21.50;42.10
28087;DHT22;15392;48.912;8.380;2023-05-19T10:00:49;21.50;42.00
28087;DHT22;15392;48.912;8.380;2023-05-19T10:03:16;21.50;42.00
28087;DHT22;15392;48.912;8.380;2023-05-19T10:05:43;21.60;42.10
28087;DHT22;15392;48.912;8.380;2023-05-19T10:08:11;21.60;42.00
28087;DHT22;15392;48.912;8.380;2023-05-19T10:10:37;21.70;41.90
28087;DHT22;15392;48.912;8.380;2023-05-19T10:13:04;21.70;41.90
28087;DHT22;15392;48.912;8.380;2023-05-19T10:15:30;21.70;41.90
28087;DHT22;15392;48.912;8.380;2023-05-19T10:17:57;21.80;41.90
28087;DHT22;15392;48.912;8.380;2023-05-19T10:20:25;21.80;41.50
28087;DHT22;15392;48.912;8.380;2023-05-19T10:22:51;21.80;41.70
28087;DHT22;15392;48.912;8.380;2023-05-19T10:25:17;21.90;41.80
28087;DHT22;15392;48.912;8.380;2023-05-19T10:27:55;21.90;41.60
28087;DHT22;15392;48.912;8.380;2023-05-19T10:30:28;22.00;41.40
28087;DHT22;15392;48.912;8.380;2023-05-19T10:33:00;22.00;41.40
28087;DHT22;15392;48.912;8.380;2023-05-19T10:35:58;22.10;41.60
28087;DHT22;15392;48.912;8.380;2023-05-19T10:38:41;22.10;41.10
28087;DHT22;15392;48.912;8.380;2023-05-19T10:41:27;22.20;41.20
28087;DHT22;15392;48.912;8.380;2023-05-19T10:44:34;22.20;41.00
28087;DHT22;15392;48.912;8.380;2023-05-19T10:47:06;22.30;41.20
28087;DHT22;15392;48.912;8.380;2023-05-19T10:49:36;22.30;41.50
28087;DHT22;15392;48.912;8.380;2023-05-19T10:52:02;22.30;41.40
28087;DHT22;15392;48.912;8.380;2023-05-19T10:54:41;22.40;41.70
28087;DHT22;15392;48.912;8.380;2023-05-19T10:57:16;22.40;41.10
28087;DHT22;15392;48.912;8.380;2023-05-19T10:59:43;22.50;41.60
28087;DHT22;15392;48.912;8.380;2023-05-19T11:02:09;22.50;41.30
28087;DHT22;15392;48.912;8.380;2023-05-19T11:04:39;22.60;41.40
28087;DHT22;15392;48.912;8.380;2023-05-19T11:07:17;22.60;41.40
28087;DHT22;15392;48.912;8.380;2023-05-19T11:09:52;22.60;41.30
28087;DHT22;15392;48.912;8.380;2023-05-19T11:12:22;22.70;40.90
28087;DHT22;15392;48.912;8.380;2023-05-19T11:14:53;22.70;40.60
28087;DHT22;15392;48.912;8.380;2023-05-19T11:17:19;22.70;40.50
28087;DHT22;15392;48.912;8.380;2023-05-19T11:19:56;22.70;39.40
28087;DHT22;15392;48.912;8.380;2023-05-19T11:22:25;22.70;38.50
28087;DHT22;15392;48.912;8.380;2023-05-19T11:24:53;22.60;39.90
28087;DHT22;15392;48.912;8.380;2023-05-19T11:29:54;22.60;40.20
28087;DHT22;15392;48.912;8.380;2023-05-19T11:32:25;22.60;40.60
28087;DHT22;15392;48.912;8.380;2023-05-19T11:34:54;22.60;40.50
28087;DHT22;15392;48.912;8.380;2023-05-19T11:37:20;22.60;40.70
28087;DHT22;15392;48.912;8.380;2023-05-19T11:39:46;22.60;40.90
28087;DHT22;15392;48.912;8.380;2023-05-19T11:42:12;22.50;40.10
28087;DHT22;15392;48.912;8.380;2023-05-19T11:44:39;22.60;40.40
28087;DHT22;15392;48.912;8.380;2023-05-19T11:47:11;22.50;39.80
28087;DHT22;15392;48.912;8.380;2023-05-19T11:49:42;22.50;40.00
28087;DHT22;15392;48.912;8.380;2023-05-19T11:52:09;22.50;40.30
28087;DHT22;15392;48.912;8.380;2023-05-19T11:54:35;22.50;40.80
28087;DHT22;15392;48.912;8.380;2023-05-19T11:57:02;22.50;40.70
28087;DHT22;15392;48.912;8.380;2023-05-19T11:59:32;22.50;40.90
28087;DHT22;15392;48.912;8.380;2023-05-19T12:02:17;22.50;40.70
28087;DHT22;15392;48.912;8.380;2023-05-19T12:04:45;22.50;40.10
28087;DHT22;15392;48.912;8.380;2023-05-19T12:07:14;22.50;40.70
28087;DHT22;15392;48.912;8.380;2023-05-19T12:09:43;22.50;41.50
28087;DHT22;15392;48.912;8.380;2023-05-19T12:12:16;22.50;40.10
28087;DHT22;15392;48.912;8.380;2023-05-19T12:14:47;22.50;40.40
28087;DHT22;15392;48.912;8.380;2023-05-19T12:17:15;22.40;40.00
28087;DHT22;15392;48.912;8.380;2023-05-19T12:19:43;22.40;40.40
28087;DHT22;15392;48.912;8.380;2023-05-19T12:22:09;22.40;40.70
28087;DHT22;15392;48.912;8.380;2023-05-19T12:24:36;22.30;40.40
28087;DHT22;15392;48.912;8.380;2023-05-19T12:27:17;22.30;40.80
28087;DHT22;15392;48.912;8.380;2023-05-19T12:29:48;22.30;40.50
28087;DHT22;15392;48.912;8.380;2023-05-19T12:32:16;22.30;40.80
28087;DHT22;15392;48.912;8.380;2023-05-19T12:34:42;22.30;41.00
28087;DHT22;15392;48.912;8.380;2023-05-19T12:37:09;22.30;40.40
28087;DHT22;15392;48.912;8.380;2023-05-19T12:39:35;22.30;40.90
28087;DHT22;15392;48.912;8.380;2023-05-19T12:42:09;22.20;40.90
28087;DHT22;15392;48.912;8.380;2023-05-19T12:44:43;22.20;41.00
28087;DHT22;15392;48.912;8.380;2023-05-19T12:47:11;22.20;40.70
28087;DHT22;15392;48.912;8.380;2023-05-19T12:50:04;22.20;41.10
28087;DHT22;15392;48.912;8.380;2023-05-19T12:52:44;22.20;40.80
28087;DHT22;15392;48.912;8.380;2023-05-19T12:55:12;22.20;41.30
28087;DHT22;15392;48.912;8.380;2023-05-19T12:57:48;22.20;41.10
28087;DHT22;15392;48.912;8.380;2023-05-19T13:00:17;22.20;40.80
28087;DHT22;15392;48.912;8.380;2023-05-19T13:03:07;22.20;41.20
28087;DHT22;15392;48.912;8.380;2023-05-19T13:05:39;22.20;41.00
28087;DHT22;15392;48.912;8.380;2023-05-19T13:08:09;22.30;41.30
28087;DHT22;15392;48.912;8.380;2023-05-19T13:10:37;22.30;41.30
28087;DHT22;15392;48.912;8.380;2023-05-19T13:13:05;22.30;41.30
28087;DHT22;15392;48.912;8.380;2023-05-19T13:15:32;22.30;41.30
28087;DHT22;15392;48.912;8.380;2023-05-19T13:18:01;22.30;41.20
28087;DHT22;15392;48.912;8.380;2023-05-19T13:20:28;22.30;41.20
28087;DHT22;15392;48.912;8.380;2023-05-19T13:22:54;22.30;41.20
28087;DHT22;15392;48.912;8.380;2023-05-19T13:25:20;22.30;41.10
28087;DHT22;15392;48.912;8.380;2023-05-19T13:27:47;22.30;41.20
28087;DHT22;15392;48.912;8.380;2023-05-19T13:30:14;22.30;41.20
28087;DHT22;15392;48.912;8.380;2023-05-19T13:32:43;22.30;41.40
28087;DHT22;15392;48.912;8.380;2023-05-19T13:35:09;22.30;41.30
28087;DHT22;15392;48.912;8.380;2023-05-19T13:37:36;22.40;41.30
28087;DHT22;15392;48.912;8.380;2023-05-19T13:40:03;22.40;41.30
28087;DHT22;15392;48.912;8.380;2023-05-19T13:42:31;22.40;41.10
28087;DHT22;15392;48.912;8.380;2023-05-19T13:44:57;22.40;41.20
28087;DHT22;15392;48.912;8.380;2023-05-19T13:47:23;22.40;41.30
28087;DHT22;15392;48.912;8.380;2023-05-19T13:49:50;22.40;41.30
28087;DHT22;15392;48.912;8.380;2023-05-19T13:52:16;22.40;41.20
28087;DHT22;15392;48.912;8.380;2023-05-19T13:54:42;22.40;40.70
28087;DHT22;15392;48.912;8.380;2023-05-19T13:57:08;22.40;40.60
28087;DHT22;15392;48.912;8.380;2023-05-19T13:59:34;22.40;40.90
28087;DHT22;15392;48.912;8.380;2023-05-19T14:02:01;22.40;40.90
28087;DHT22;15392;48.912;8.380;2023-05-19T14:04:27;22.40;41.00
28087;DHT22;15392;48.912;8.380;2023-05-19T14:06:53;22.40;40.90
28087;DHT22;15392;48.912;8.380;2023-05-19T14:09:20;22.40;41.00
28087;DHT22;15392;48.912;8.380;2023-05-19T14:11:46;22.50;41.00
28087;DHT22;15392;48.912;8.380;2023-05-19T14:14:12;22.40;40.90
28087;DHT22;15392;48.912;8.380;2023-05-19T14:16:39;22.40;41.00
28087;DHT22;15392;48.912;8.380;2023-05-19T14:19:05;22.40;40.80
28087;DHT22;15392;48.912;8.380;2023-05-19T14:21:31;22.40;40.90
28087;DHT22;15392;48.912;8.380;2023-05-19T14:23:57;22.50;41.10
28087;DHT22;15392;48.912;8.380;2023-05-19T14:26:23;22.50;40.60
28087;DHT22;15392;48.912;8.380;2023-05-19T14:28:50;22.40;40.90
28087;DHT22;15392;48.912;8.380;2023-05-19T14:31:16;22.50;40.00
28087;DHT22;15392;48.912;8.380;2023-05-19T14:33:42;22.40;40.20
28087;DHT22;15392;48.912;8.380;2023-05-19T14:36:08;22.40;40.70
28087;DHT22;15392;48.912;8.380;2023-05-19T14:38:35;22.40;40.60
28087;DHT22;15392;48.912;8.380;2023-05-19T14:41:01;22.40;40.80
28087;DHT22;15392;48.912;8.380;2023-05-19T14:43:27;22.30;40.80
28087;DHT22;15392;48.912;8.380;2023-05-19T14:45:53;22.30;40.50
28087;DHT22;15392;48.912;8.380;2023-05-19T14:48:19;22.30;40.00
28087;DHT22;15392;48.912;8.380;2023-05-19T14:50:45;22.40;39.40
28087;DHT22;15392;48.912;8.380;2023-05-19T14:53:13;22.20;39.70
28087;DHT22;15392;48.912;8.380;2023-05-19T14:55:39;22.30;39.90
28087;DHT22;15392;48.912;8.380;2023-05-19T14:58:05;22.20;40.20
28087;DHT22;15392;48.912;8.380;2023-05-19T15:00:31;22.10;40.30
28087;DHT22;15392;48.912;8.380;2023-05-19T15:02:56;22.10;40.20
28087;DHT22;15392;48.912;8.380;2023-05-19T15:05:22;22.10;39.90
28087;DHT22;15392;48.912;8.380;2023-05-19T15:07:49;22.00;40.40
28087;DHT22;15392;48.912;8.380;2023-05-19T15:10:15;22.00;39.60
28087;DHT22;15392;48.912;8.380;2023-05-19T15:12:42;22.00;39.90
28087;DHT22;15392;48.912;8.380;2023-05-19T15:15:08;22.00;39.80
28087;DHT22;15392;48.912;8.380;2023-05-19T15:17:34;21.90;40.20
28087;DHT22;15392;48.912;8.380;2023-05-19T15:20:00;21.90;40.50
28087;DHT22;15392;48.912;8.380;2023-05-19T15:22:26;22.00;40.70
28087;DHT22;15392;48.912;8.380;2023-05-19T15:24:52;22.00;40.40
28087;DHT22;15392;48.912;8.380;2023-05-19T15:27:18;22.00;40.80
28087;DHT22;15392;48.912;8.380;2023-05-19T15:29:45;22.00;40.70
28087;DHT22;15392;48.912;8.380;2023-05-19T15:32:11;22.00;41.10
28087;DHT22;15392;48.912;8.380;2023-05-19T15:34:36;22.00;41.20
28087;DHT22;15392;48.912;8.380;2023-05-19T15:37:02;22.00;41.10
28087;DHT22;15392;48.912;8.380;2023-05-19T15:39:31;22.10;41.00
28087;DHT22;15392;48.912;8.380;2023-05-19T15:41:58;22.10;41.10
28087;DHT22;15392;48.912;8.380;2023-05-19T15:44:24;22.10;40.60
28087;DHT22;15392;48.912;8.380;2023-05-19T15:46:49;22.10;40.70
28087;DHT22;15392;48.912;8.380;2023-05-19T15:49:15;22.10;41.00
28087;DHT22;15392;48.912;8.380;2023-05-19T15:51:42;22.10;41.00
28087;DHT22;15392;48.912;8.380;2023-05-19T15:54:09;22.10;41.30
28087;DHT22;15392;48.912;8.380;2023-05-19T15:56:35;22.10;41.40
28087;DHT22;15392;48.912;8.380;2023-05-19T15:59:00;22.20;41.60